createdAt,value
2019-05-31T00:02:23.337Z,65.17
2019-05-31T00:04:53.163Z,63.40
2019-05-31T00:07:21.775Z,63.50
2019-05-31T00:09:52.410Z,62.97
2019-05-31T00:12:20.371Z,61.10
2019-05-31T00:14:48.784Z,64.63
2019-05-31T00:17:17.222Z,61.80
2019-05-31T00:19:45.633Z,65.17
2019-05-31T00:22:14.044Z,62.43
2019-05-31T00:24:42.554Z,62.13
2019-05-31T00:27:10.961Z,61.57
2019-05-31T00:29:39.400Z,65.10
2019-05-31T00:32:07.808Z,63.30
2019-05-31T00:34:36.244Z,64.20
2019-05-31T00:37:04.731Z,70.07
2019-05-31T00:39:33.168Z,64.93
2019-05-31T00:42:01.582Z,64.83
2019-05-31T00:44:32.874Z,62.57
2019-05-31T00:47:01.573Z,65.27
2019-05-31T00:49:30.181Z,64.90
2019-05-31T00:51:59.867Z,67.60
2019-05-31T00:54:28.442Z,64.60
2019-05-31T00:56:56.913Z,67.20
2019-05-31T00:59:25.352Z,66.00
2019-05-31T01:01:53.776Z,70.73
2019-05-31T01:04:22.205Z,64.87
2019-05-31T01:06:50.614Z,64.83
2019-05-31T01:09:19.119Z,63.40
2019-05-31T01:11:47.535Z,65.03
2019-05-31T01:14:15.967Z,69.00
2019-05-31T01:16:44.378Z,66.47
2019-05-31T01:19:12.807Z,65.80
2019-05-31T01:21:41.220Z,65.87
2019-05-31T01:24:09.633Z,65.87
2019-05-31T01:26:38.070Z,66.50
2019-05-31T01:29:07.702Z,69.90
2019-05-31T01:31:36.303Z,67.97
2019-05-31T01:34:06.264Z,69.27
2019-05-31T01:36:34.909Z,67.50
2019-05-31T01:39:04.386Z,66.17
2019-05-31T01:41:32.941Z,65.47
2019-05-31T01:44:01.352Z,65.60
2019-05-31T01:46:29.794Z,67.13
2019-05-31T01:48:58.207Z,67.30
2019-05-31T01:51:26.644Z,66.30
2019-05-31T01:53:55.061Z,68.83
2019-05-31T01:56:23.496Z,66.77
2019-05-31T01:58:51.909Z,63.50
2019-05-31T02:01:20.348Z,64.40
2019-05-31T02:03:48.791Z,65.10
2019-05-31T02:06:19.034Z,67.13
2019-05-31T02:08:47.355Z,66.40
2019-05-31T02:11:17.025Z,65.17
2019-05-31T02:13:45.601Z,69.40
2019-05-31T02:16:14.096Z,62.03
2019-05-31T02:18:42.513Z,66.67
2019-05-31T02:21:13.260Z,67.00
2019-05-31T02:23:41.099Z,62.10
2019-05-31T02:26:09.537Z,61.80
2019-05-31T02:28:37.952Z,64.27
2019-05-31T02:31:07.911Z,64.30
2019-05-31T02:33:36.557Z,66.40
2019-05-31T02:36:06.450Z,63.93
2019-05-31T02:38:35.060Z,62.57
2019-05-31T02:41:03.577Z,65.17
2019-05-31T02:43:32.055Z,65.30
2019-05-31T02:46:00.502Z,65.13
2019-05-31T02:48:28.904Z,66.33
2019-05-31T02:50:57.417Z,66.50
2019-05-31T02:53:25.905Z,66.63
2019-05-31T02:55:55.449Z,64.80
2019-05-31T02:58:24.153Z,62.57
2019-05-31T03:00:52.634Z,61.17
2019-05-31T03:03:22.115Z,62.93
2019-05-31T03:05:51.464Z,65.67
2019-05-31T03:08:24.299Z,62.40
2019-05-31T03:10:53.076Z,66.87
2019-05-31T03:13:22.092Z,62.53
2019-05-31T03:16:06.324Z,63.17
2019-05-31T03:18:22.333Z,63.30
2019-05-31T03:20:50.810Z,63.87
2019-05-31T03:23:20.992Z,63.40
2019-05-31T03:25:49.412Z,61.83
2019-05-31T03:28:19.631Z,66.80
2019-05-31T03:30:47.991Z,60.57
2019-05-31T03:33:20.404Z,65.50
2019-05-31T03:35:46.576Z,63.90
2019-05-31T03:38:16.606Z,63.23
2019-05-31T03:40:45.297Z,60.90
2019-05-31T03:43:14.898Z,63.47
2019-05-31T03:45:43.881Z,63.63
2019-05-31T03:48:12.326Z,63.53
2019-05-31T03:50:41.282Z,64.97
2019-05-31T03:53:09.793Z,63.93
2019-05-31T03:55:38.231Z,59.53
2019-05-31T03:58:06.713Z,65.17
2019-05-31T04:00:49.928Z,61.87
2019-05-31T04:03:18.924Z,60.90
2019-05-31T04:05:47.830Z,61.90
2019-05-31T04:08:18.012Z,62.63
2019-05-31T04:10:46.482Z,59.67
2019-05-31T04:13:15.950Z,62.57
2019-05-31T04:15:45.527Z,62.53
2019-05-31T04:18:14.334Z,63.17
2019-05-31T04:20:42.757Z,62.20
2019-05-31T04:23:11.204Z,61.00
2019-05-31T04:25:39.610Z,65.40
2019-05-31T04:28:08.051Z,59.17
2019-05-31T04:30:36.533Z,58.57
2019-05-31T04:33:05.208Z,61.43
2019-05-31T04:35:33.627Z,61.00
2019-05-31T04:38:02.139Z,65.37
2019-05-31T04:40:30.614Z,61.33
2019-05-31T04:42:59.027Z,61.27
2019-05-31T04:45:27.476Z,60.13
2019-05-31T04:47:55.870Z,62.30
2019-05-31T04:50:25.749Z,60.73
2019-05-31T04:52:54.443Z,57.50
2019-05-31T04:55:24.378Z,57.07
2019-05-31T04:57:52.983Z,58.13
2019-05-31T05:00:24.015Z,56.27
2019-05-31T05:02:51.693Z,63.50
2019-05-31T05:05:20.765Z,57.50
2019-05-31T05:07:49.597Z,57.60
2019-05-31T05:10:18.729Z,58.47
2019-05-31T05:12:47.398Z,61.50
2019-05-31T05:15:16.747Z,64.83
2019-05-31T05:17:45.364Z,56.70
2019-05-31T05:20:14.071Z,58.30
2019-05-31T05:22:42.562Z,61.57
2019-05-31T05:25:11.163Z,59.10
2019-05-31T05:27:39.579Z,56.40
2019-05-31T05:30:08.986Z,59.07
2019-05-31T05:32:37.402Z,53.30
2019-05-31T05:35:07.878Z,54.80
2019-05-31T05:37:36.287Z,54.60
2019-05-31T05:40:06.695Z,57.50
2019-05-31T05:42:35.177Z,53.80
2019-05-31T05:45:05.489Z,55.90
2019-05-31T05:47:46.833Z,54.00
2019-05-31T05:50:08.623Z,52.53
2019-05-31T05:52:37.109Z,55.20
2019-05-31T05:55:06.888Z,55.23
2019-05-31T05:57:35.308Z,53.97
2019-05-31T06:00:05.983Z,55.53
2019-05-31T06:02:34.405Z,55.77
2019-05-31T06:05:02.907Z,56.43
2019-05-31T06:07:32.435Z,56.97
2019-05-31T06:10:01.039Z,54.47
2019-05-31T06:12:29.448Z,54.83
2019-05-31T06:14:57.879Z,55.87
2019-05-31T06:17:26.293Z,54.97
2019-05-31T06:19:54.735Z,57.17
2019-05-31T06:22:24.328Z,61.10
2019-05-31T06:24:52.961Z,56.70
2019-05-31T06:27:21.381Z,59.13
2019-05-31T06:29:52.836Z,55.90
2019-05-31T06:32:19.954Z,56.23
2019-05-31T06:34:48.409Z,54.50
2019-05-31T06:37:16.887Z,60.87
2019-05-31T06:39:45.300Z,56.07
2019-05-31T06:42:13.741Z,63.10
2019-05-31T06:44:42.157Z,58.03
2019-05-31T06:47:10.601Z,56.63
2019-05-31T06:49:39.010Z,61.20
2019-05-31T06:52:07.455Z,58.40
2019-05-31T06:54:38.079Z,56.50
2019-05-31T06:57:06.099Z,57.97
2019-05-31T06:59:34.579Z,58.23
2019-05-31T07:02:03.020Z,58.43
2019-05-31T07:04:32.859Z,59.80
2019-05-31T07:07:01.462Z,54.27
2019-05-31T07:09:32.147Z,59.97
2019-05-31T07:12:13.937Z,56.53
2019-05-31T07:14:30.173Z,59.23
2019-05-31T07:16:58.618Z,59.10
2019-05-31T07:19:28.110Z,57.93
2019-05-31T07:21:56.667Z,57.00
2019-05-31T07:24:25.072Z,58.53
2019-05-31T07:27:00.639Z,56.37
2019-05-31T07:29:33.406Z,56.43
2019-05-31T07:31:53.813Z,56.90
2019-05-31T07:34:22.229Z,53.70
2019-05-31T07:36:50.671Z,55.93
2019-05-31T07:39:19.084Z,57.10
2019-05-31T07:41:47.540Z,56.70
2019-05-31T07:44:15.953Z,56.67
2019-05-31T07:47:01.817Z,55.37
2019-05-31T07:49:14.526Z,52.27
2019-05-31T07:51:43.008Z,52.87
2019-05-31T07:54:11.446Z,53.97
2019-05-31T07:56:40.911Z,51.90
2019-05-31T07:59:09.481Z,54.57
2019-05-31T08:01:37.902Z,53.80
2019-05-31T08:04:06.345Z,52.67
2019-05-31T08:06:38.421Z,55.50
2019-05-31T08:09:07.464Z,51.13
2019-05-31T08:11:35.879Z,49.90
2019-05-31T08:14:04.322Z,51.97
2019-05-31T08:16:34.009Z,53.53
2019-05-31T08:19:15.390Z,51.93
2019-05-31T08:21:34.449Z,49.33
2019-05-31T08:24:02.964Z,52.63
2019-05-31T08:26:32.100Z,48.97
2019-05-31T08:29:00.689Z,48.43
2019-05-31T08:31:30.204Z,52.90
2019-05-31T08:33:58.723Z,50.80
2019-05-31T08:36:28.403Z,48.37
2019-05-31T08:38:56.955Z,46.90
2019-05-31T08:41:26.464Z,50.13
2019-05-31T08:43:55.050Z,46.60
2019-05-31T08:46:23.462Z,47.10
2019-05-31T08:48:51.903Z,47.90
2019-05-31T08:51:20.321Z,46.13
2019-05-31T08:53:48.764Z,46.57
2019-05-31T08:56:17.176Z,43.53
2019-05-31T08:58:45.614Z,47.57
2019-05-31T09:01:14.310Z,52.93
2019-05-31T09:03:44.802Z,44.97
2019-05-31T09:06:13.224Z,44.30
2019-05-31T09:08:42.476Z,45.83
2019-05-31T09:11:10.891Z,44.00
2019-05-31T09:13:39.700Z,47.30
2019-05-31T09:16:08.213Z,47.47
2019-05-31T09:18:36.810Z,43.90
2019-05-31T09:21:05.235Z,43.83
2019-05-31T09:23:35.319Z,44.20
2019-05-31T09:26:03.960Z,45.53
2019-05-31T09:28:32.600Z,43.90
2019-05-31T09:31:01.088Z,44.40
2019-05-31T09:33:29.485Z,47.57
2019-05-31T09:35:57.920Z,42.53
2019-05-31T09:38:26.343Z,44.20
2019-05-31T09:40:54.770Z,40.73
2019-05-31T09:43:23.192Z,40.07
2019-05-31T09:45:51.626Z,43.90
2019-05-31T09:48:20.049Z,41.90
2019-05-31T09:50:48.468Z,43.30
2019-05-31T09:53:17.120Z,40.60
2019-05-31T09:55:46.072Z,48.87
2019-05-31T09:58:14.481Z,47.20
2019-05-31T10:00:43.047Z,38.37
2019-05-31T10:03:11.460Z,39.67
2019-05-31T10:05:40.280Z,40.77
2019-05-31T10:08:10.425Z,42.00
2019-05-31T10:10:41.255Z,41.53
2019-05-31T10:13:09.291Z,40.80
2019-05-31T10:15:39.282Z,39.17
2019-05-31T10:18:07.927Z,39.80
2019-05-31T10:20:37.764Z,43.23
2019-05-31T10:23:06.488Z,41.07
2019-05-31T10:25:36.688Z,40.70
2019-05-31T10:28:05.498Z,42.00
2019-05-31T10:30:34.632Z,39.50
2019-05-31T10:33:04.358Z,45.20
2019-05-31T10:35:33.650Z,40.83
2019-05-31T10:38:02.928Z,41.50
2019-05-31T10:40:31.331Z,40.70
2019-05-31T10:42:59.764Z,41.73
2019-05-31T10:45:28.242Z,40.97
2019-05-31T10:47:56.669Z,40.80
2019-05-31T10:50:25.142Z,41.40
2019-05-31T10:52:53.569Z,42.33
2019-05-31T10:55:23.448Z,43.60
2019-05-31T10:57:51.888Z,45.73
2019-05-31T11:00:20.560Z,41.87
2019-05-31T11:02:48.990Z,41.17
2019-05-31T11:05:19.181Z,40.33
2019-05-31T11:07:47.832Z,40.03
2019-05-31T11:10:16.671Z,40.90
2019-05-31T11:12:45.582Z,41.00
2019-05-31T11:15:16.099Z,43.40
2019-05-31T11:17:49.734Z,39.60
2019-05-31T11:20:15.234Z,46.77
2019-05-31T11:22:44.264Z,38.47
2019-05-31T11:25:13.115Z,43.50
2019-05-31T11:27:42.148Z,41.67
2019-05-31T11:30:15.528Z,41.40
2019-05-31T11:32:48.329Z,39.33
2019-05-31T11:35:15.739Z,42.90
2019-05-31T11:37:46.977Z,37.20
2019-05-31T11:40:14.602Z,39.43
2019-05-31T11:43:04.304Z,38.13
2019-05-31T11:45:13.527Z,37.87
2019-05-31T11:47:46.439Z,37.87
2019-05-31T11:50:13.685Z,41.43
2019-05-31T11:52:43.312Z,37.67
2019-05-31T11:55:27.648Z,40.43
2019-05-31T11:57:43.562Z,39.90
2019-05-31T12:00:13.919Z,38.70
2019-05-31T12:02:46.510Z,43.03
2019-05-31T12:05:12.636Z,39.67
2019-05-31T12:07:42.316Z,39.70
2019-05-31T12:10:10.998Z,39.00
2019-05-31T12:12:40.961Z,39.20
2019-05-31T12:15:09.629Z,38.17
2019-05-31T12:17:38.441Z,40.87
2019-05-31T12:20:15.208Z,41.10
2019-05-31T12:22:38.619Z,41.77
2019-05-31T12:25:10.390Z,40.47
2019-05-31T12:27:38.922Z,41.40
2019-05-31T12:30:20.958Z,42.33
2019-05-31T12:32:40.057Z,41.97
2019-05-31T12:35:08.771Z,42.90
2019-05-31T12:37:37.180Z,41.30
2019-05-31T12:40:08.768Z,43.10
2019-05-31T12:42:37.202Z,42.60
2019-05-31T12:45:09.465Z,44.00
2019-05-31T12:47:38.046Z,44.60
2019-05-31T12:50:07.045Z,46.50
2019-05-31T12:52:35.685Z,42.43
2019-05-31T12:55:08.882Z,48.60
2019-05-31T12:57:37.292Z,43.50
2019-05-31T13:00:13.388Z,46.93
2019-05-31T13:02:46.467Z,44.97
2019-05-31T13:05:12.169Z,42.10
2019-05-31T13:07:41.798Z,44.20
2019-05-31T13:10:16.329Z,41.67
2019-05-31T13:12:42.883Z,42.47
2019-05-31T13:15:12.720Z,40.07
2019-05-31T13:17:41.117Z,42.87
2019-05-31T13:20:11.159Z,42.13
2019-05-31T13:22:39.565Z,42.83
2019-05-31T13:25:08.640Z,41.63
2019-05-31T13:27:38.488Z,46.63
2019-05-31T13:30:09.963Z,40.03
2019-05-31T13:32:38.454Z,42.17
2019-05-31T13:35:08.531Z,41.30
2019-05-31T13:37:36.941Z,43.90
2019-05-31T13:40:09.159Z,42.00
2019-05-31T13:42:37.740Z,43.33
2019-05-31T13:45:08.891Z,41.10
2019-05-31T13:47:37.370Z,41.27
2019-05-31T13:50:07.158Z,44.60
2019-05-31T13:52:41.153Z,42.57
2019-05-31T13:55:06.631Z,45.73
2019-05-31T13:57:35.062Z,45.20
2019-05-31T14:00:05.390Z,41.93
2019-05-31T14:02:33.826Z,46.60
2019-05-31T14:05:02.232Z,43.63
2019-05-31T14:07:30.667Z,47.50
2019-05-31T14:10:03.429Z,41.93
2019-05-31T14:12:29.328Z,43.77
2019-05-31T14:14:58.763Z,44.13
2019-05-31T14:17:27.491Z,47.70
2019-05-31T14:19:56.475Z,43.33
2019-05-31T14:22:34.179Z,42.37
2019-05-31T14:24:56.901Z,44.87
2019-05-31T14:27:25.445Z,43.43
2019-05-31T14:29:53.928Z,46.07
2019-05-31T14:32:22.364Z,43.60
2019-05-31T14:34:51.990Z,43.70
2019-05-31T14:37:20.592Z,44.90
2019-05-31T14:39:50.210Z,45.80
2019-05-31T14:42:19.378Z,44.80
2019-05-31T14:44:47.784Z,49.50
2019-05-31T14:47:16.220Z,47.63
2019-05-31T14:49:44.628Z,43.47
2019-05-31T14:52:13.065Z,43.80
2019-05-31T14:54:41.470Z,45.07
2019-05-31T14:57:09.909Z,41.90
2019-05-31T14:59:38.315Z,43.17
2019-05-31T15:02:06.816Z,41.07
2019-05-31T15:04:35.215Z,41.27
2019-05-31T15:07:03.692Z,46.97
2019-05-31T15:09:32.190Z,41.83
2019-05-31T15:12:02.485Z,42.40
2019-05-31T15:14:30.824Z,41.60
2019-05-31T15:16:59.829Z,41.77
2019-05-31T15:19:29.585Z,42.20
2019-05-31T15:21:59.287Z,42.53
2019-05-31T15:24:27.805Z,44.07
2019-05-31T15:26:57.994Z,43.57
2019-05-31T15:29:26.372Z,42.77
2019-05-31T15:32:17.515Z,42.80
2019-05-31T15:35:02.586Z,41.87
2019-05-31T15:37:31.250Z,42.37
2019-05-31T15:40:02.848Z,45.00
2019-05-31T15:42:46.567Z,42.17
2019-05-31T15:45:15.155Z,41.17
2019-05-31T15:47:43.577Z,44.10
2019-05-31T15:50:12.321Z,40.83
2019-05-31T15:52:40.731Z,45.33
2019-05-31T15:55:17.751Z,43.50
2019-05-31T15:57:39.381Z,45.30
2019-05-31T16:00:09.246Z,42.30
2019-05-31T16:02:37.680Z,48.43
2019-05-31T16:05:06.989Z,45.40
2019-05-31T16:07:35.399Z,47.27
2019-05-31T16:10:07.155Z,46.70
2019-05-31T16:12:35.833Z,47.10
2019-05-31T16:15:06.919Z,47.03
2019-05-31T16:17:35.455Z,45.73
2019-05-31T16:20:05.919Z,47.60
2019-05-31T16:22:34.325Z,44.33
2019-05-31T16:25:03.540Z,45.00
2019-05-31T16:27:32.044Z,48.97
2019-05-31T16:30:00.472Z,45.10
2019-05-31T16:32:28.883Z,45.40
2019-05-31T16:34:57.984Z,46.07
2019-05-31T16:37:26.511Z,44.90
2019-05-31T16:39:54.924Z,44.27
2019-05-31T16:42:23.332Z,46.17
2019-05-31T16:44:51.759Z,46.80
2019-05-31T16:47:20.169Z,45.90
2019-05-31T16:49:56.959Z,45.53
2019-05-31T16:52:18.729Z,42.80
2019-05-31T16:54:47.160Z,45.30
2019-05-31T16:57:15.582Z,43.93
2019-05-31T16:59:44.003Z,44.30
2019-05-31T17:02:12.435Z,43.40
2019-05-31T17:04:40.864Z,47.60
2019-05-31T17:07:09.969Z,47.20
2019-05-31T17:09:38.541Z,45.10
2019-05-31T17:12:08.161Z,46.23
2019-05-31T17:14:36.760Z,46.20
2019-05-31T17:17:06.106Z,45.67
2019-05-31T17:19:34.633Z,43.77
2019-05-31T17:22:03.074Z,43.47
2019-05-31T17:24:40.751Z,43.07
2019-05-31T17:27:02.469Z,45.00
2019-05-31T17:29:31.006Z,47.07
2019-05-31T17:31:59.501Z,45.20
2019-05-31T17:34:41.798Z,45.60
2019-05-31T17:36:58.088Z,41.80
2019-05-31T17:39:26.533Z,44.60
2019-05-31T17:41:54.969Z,40.47
2019-05-31T17:44:23.383Z,45.37
2019-05-31T17:46:51.808Z,41.47
2019-05-31T17:49:20.210Z,43.50
2019-05-31T17:51:48.640Z,45.37
2019-05-31T17:54:17.213Z,44.87
2019-05-31T17:56:45.639Z,50.23
2019-05-31T17:59:15.001Z,43.67
2019-05-31T18:01:43.556Z,43.50
2019-05-31T18:04:11.961Z,43.13
2019-05-31T18:06:40.463Z,45.10
2019-05-31T18:09:10.140Z,48.07
2019-05-31T18:11:38.674Z,42.60
2019-05-31T18:14:07.133Z,42.27
2019-05-31T18:16:35.560Z,44.07
2019-05-31T18:19:03.961Z,45.57
2019-05-31T18:21:32.404Z,43.80
2019-05-31T18:24:00.884Z,43.80
2019-05-31T18:26:29.308Z,46.60
2019-05-31T18:28:57.711Z,44.37
2019-05-31T18:31:26.137Z,46.97
2019-05-31T18:33:54.604Z,45.63
2019-05-31T18:36:23.041Z,45.27
2019-05-31T18:38:51.451Z,49.50
2019-05-31T18:41:19.949Z,45.83
2019-05-31T18:43:48.369Z,48.07
2019-05-31T18:46:17.176Z,47.20
2019-05-31T18:48:46.976Z,50.37
2019-05-31T18:51:16.004Z,52.60
2019-05-31T18:53:44.512Z,44.20
2019-05-31T18:56:13.506Z,43.97
2019-05-31T18:58:42.032Z,44.30
2019-05-31T19:01:10.905Z,46.63
2019-05-31T19:03:39.319Z,45.90
2019-05-31T19:06:07.753Z,45.93
2019-05-31T19:08:36.235Z,46.50
2019-05-31T19:11:04.766Z,49.03
2019-05-31T19:13:34.198Z,45.73
2019-05-31T19:16:02.865Z,46.60
2019-05-31T19:18:31.293Z,48.80
2019-05-31T19:21:01.750Z,47.07
2019-05-31T19:23:29.865Z,49.40
2019-05-31T19:25:58.277Z,48.47
2019-05-31T19:28:26.715Z,52.70
2019-05-31T19:30:55.198Z,48.10
2019-05-31T19:33:23.704Z,46.07
2019-05-31T19:35:52.179Z,52.67
2019-05-31T19:38:20.680Z,49.67
2019-05-31T19:40:49.157Z,53.50
2019-05-31T19:43:18.858Z,54.93
2019-05-31T19:45:47.493Z,50.37
2019-05-31T19:48:17.057Z,58.27
2019-05-31T19:50:45.682Z,48.60
2019-05-31T19:53:15.663Z,52.77
2019-05-31T19:55:44.306Z,51.27
2019-05-31T19:58:12.736Z,50.77
2019-05-31T20:00:41.417Z,49.57
2019-05-31T20:03:10.358Z,48.07
2019-05-31T20:05:38.773Z,51.37
2019-05-31T20:08:07.275Z,52.10
2019-05-31T20:10:35.684Z,51.77
2019-05-31T20:13:04.487Z,54.47
2019-05-31T20:15:33.036Z,50.57
2019-05-31T20:18:01.536Z,49.03
2019-05-31T20:20:29.938Z,50.20
2019-05-31T20:22:58.369Z,53.37
2019-05-31T20:27:56.960Z,52.53
2019-05-31T20:30:02.220Z,47.73
2019-05-31T20:35:40.044Z,50.87
2019-05-31T20:37:55.854Z,49.20
2019-05-31T20:40:29.727Z,53.83
2019-05-31T20:42:02.618Z,51.63
2019-05-31T20:42:30.703Z,52.10
2019-05-31T20:45:24.972Z,52.47
2019-05-31T20:47:53.487Z,54.90
2019-05-31T20:50:23.112Z,50.63
2019-05-31T20:52:51.687Z,54.77
2019-05-31T20:55:20.137Z,57.27
2019-05-31T20:57:48.647Z,51.77
2019-05-31T21:00:17.588Z,60.83
2019-05-31T21:02:45.989Z,52.27
2019-05-31T21:05:14.572Z,51.90
2019-05-31T21:07:42.976Z,54.53
2019-05-31T21:10:12.651Z,56.10
2019-05-31T21:12:41.125Z,52.20
2019-05-31T21:15:09.810Z,59.63
2019-05-31T21:17:38.227Z,54.40
2019-05-31T21:20:08.277Z,52.47
2019-05-31T21:22:36.686Z,48.33
2019-05-31T21:25:06.935Z,53.93
2019-05-31T21:27:35.345Z,53.87
2019-05-31T21:30:05.212Z,56.67
2019-05-31T21:32:33.630Z,51.90
2019-05-31T21:35:02.079Z,54.03
2019-05-31T21:37:30.970Z,51.50
2019-05-31T21:39:59.503Z,53.60
2019-05-31T21:42:29.194Z,54.07
2019-05-31T21:44:57.847Z,57.00
2019-05-31T21:47:27.534Z,57.70
2019-05-31T21:49:56.148Z,52.83
2019-05-31T21:52:25.985Z,49.93
2019-05-31T21:54:54.607Z,49.83
2019-05-31T21:57:23.020Z,53.53
2019-05-31T21:59:51.423Z,51.50
2019-05-31T22:02:19.936Z,52.67
2019-05-31T22:04:48.348Z,56.73
2019-05-31T22:07:16.927Z,51.53
2019-05-31T22:09:45.344Z,55.00
2019-05-31T22:12:13.778Z,55.73
2019-05-31T22:14:42.190Z,57.13
2019-05-31T22:17:10.625Z,56.70
2019-05-31T22:19:39.039Z,55.60
2019-05-31T22:22:07.553Z,56.50
2019-05-31T22:24:38.187Z,52.60
2019-05-31T22:27:06.196Z,53.53
2019-05-31T22:29:35.119Z,53.57
2019-05-31T22:32:08.375Z,58.27
2019-05-31T22:34:37.784Z,52.27
2019-05-31T22:37:06.302Z,54.77
2019-05-31T22:39:34.721Z,48.47
2019-05-31T22:42:03.170Z,55.23
2019-05-31T22:44:32.637Z,49.83
2019-05-31T22:47:01.297Z,52.43
2019-05-31T22:49:31.897Z,52.67
2019-05-31T22:51:59.867Z,50.33
2019-05-31T22:54:28.279Z,54.97
2019-05-31T22:56:56.728Z,53.00
2019-05-31T22:59:36.561Z,55.37
2019-05-31T23:01:55.375Z,59.33
2019-05-31T23:04:23.794Z,54.80
2019-05-31T23:06:52.233Z,53.80
2019-05-31T23:09:20.655Z,55.47
2019-05-31T23:11:49.095Z,52.93
2019-05-31T23:14:17.513Z,52.23
2019-05-31T23:16:47.199Z,51.13
2019-05-31T23:19:15.712Z,52.03
2019-05-31T23:21:44.149Z,53.40
2019-05-31T23:24:12.562Z,54.67
2019-05-31T23:26:41.687Z,54.53
2019-05-31T23:29:10.356Z,54.27
2019-05-31T23:31:38.989Z,54.87
2019-05-31T23:34:07.478Z,53.50
2019-05-31T23:36:36.430Z,57.13
2019-05-31T23:39:06.562Z,57.70
2019-05-31T23:41:36.200Z,54.73
2019-05-31T23:44:04.759Z,56.80
2019-05-31T23:46:33.167Z,58.00
2019-05-31T23:49:01.600Z,55.67
2019-05-31T23:51:30.020Z,53.27
2019-05-31T23:53:58.455Z,57.10
2019-05-31T23:56:26.874Z,55.23
2019-05-31T23:58:55.316Z,55.27
